Super Express — WAB6372 — position and weather

sailwx.info

Track history (hours):
 
Tides and Currents Weather Stations Pressure Air Temp Water Temp Dewpoint Dewpoint Depression Visibility Wind Speed Wind Dir Waves Ship Positions

Super Express

Owner: CATALINA CHANNEL EXPRESS, Long Beach, CA. More information available from US FCC via Universal Licensing System and Coast Guard Vessel Documentation Center.

Last reported at 2017-Dec-10 01:46 UTC. Time now 2017-Dec-11 17:22 UTC.
Position N 33°27' W 118°18'.

Length 45 m; draft 1 m.

Type: High speed craft. MMSI: 366943940.

Date/timePositionNaut miles runAvg speedWind from/ knotsBaromVisibWave heightAir tempDewpointWater temp
2017-Dec-10 01:46N 33°27' W 118°18'13 0.6
2017-Dec-09 03:35N 33°39' W 118°15'225.2
2017-Dec-09 03:31N 33°38' W 118°15'1325.4
2017-Dec-09 03:00N 33°25' W 118°18'5 7.6
2017-Dec-09 02:24N 33°21' W 118°19'719.0
2017-Dec-09 02:00N 33°27' W 118°25'4 7.0
2017-Dec-09 01:27N 33°27' W 118°30'1023.7
2017-Dec-09 01:01N 33°35' W 118°22'5 0.1
2017-Dec-07 02:10N 33°35' W 118°16'425.4
2017-Dec-07 02:00N 33°31' W 118°17'9 8.4
2017-Dec-07 00:57N 33°23' W 118°20'8 9.6
2017-Dec-07 00:04N 33°27' W 118°30'0 7.4
2017-Dec-07 00:00N 33°27' W 118°29'  
2017-Dec-04 02:19N 33°40' W 118°14'825.2
2017-Dec-04 01:59N 33°32' W 118°17'1112.5
2017-Dec-04 01:05N 33°21' W 118°19'21 4.4
2017-Dec-03 20:22N 33°41' W 118°15'925.5
2017-Dec-03 20:01N 33°34' W 118°22'9 9.8
2017-Dec-03 19:03N 33°27' W 118°30'0 8.9
2017-Dec-03 19:00N 33°27' W 118°29'14 9.9
2017-Dec-03 17:34N 33°36' W 118°16'3 0.2
2017-Dec-03 02:16N 33°39' W 118°15'725.2
2017-Dec-03 02:00N 33°32' W 118°17'1111.2
2017-Dec-03 01:03N 33°22' W 118°19'425.6
2017-Dec-03 00:54N 33°25' W 118°22'6 8.6
2017-Dec-03 00:08N 33°27' W 118°30'320.1
2017-Dec-03 00:01N 33°28' W 118°27'1325.4
2017-Dec-02 23:30N 33°38' W 118°17'7 2.4
2017-Dec-02 20:38N 33°45' W 118°17'1 8.1
2017-Dec-02 20:29N 33°44' W 118°16'1019.9
2017-Dec-02 20:00N 33°35' W 118°22'11 8.7
2017-Dec-02 18:42N 33°24' W 118°22'4 7.3
2017-Dec-02 18:12N 33°21' W 118°19'622.7
2017-Dec-02 17:56N 33°27' W 118°18'17 1.2
2017-Dec-02 03:45N 33°43' W 118°16'520.2
2017-Dec-02 03:30N 33°38' W 118°16'1425.7
2017-Dec-02 02:59N 33°25' W 118°18'4 7.0
2017-Dec-02 02:22N 33°21' W 118°19'1110.6
2017-Dec-02 01:22N 33°29' W 118°28'925.9
2017-Dec-02 01:00N 33°36' W 118°21'917.9
2017-Dec-02 00:30N 33°44' W 118°17'1 1.2
2017-Dec-01 23:40N 33°45' W 118°16'0 0.0
2017-Dec-01 23:29N 33°45' W 118°16'0 0.0
2017-Dec-01 23:00N 33°45' W 118°16'5 1.8
2017-Dec-01 20:20N 33°40' W 118°16'824.8
2017-Dec-01 20:00N 33°34' W 118°22'910.2
2017-Dec-01 19:05N 33°27' W 118°30'215.6
2017-Dec-01 18:59N 33°27' W 118°28'910.3
2017-Dec-01 18:09N 33°22' W 118°19'425.4
2017-Dec-01 17:59N 33°26' W 118°19'1225.0
2017-Dec-01 17:29N 33°39' W 118°16'613.0
2017-Dec-01 17:00N 33°45' W 118°16'5 0.1
2017-Nov-30 02:24N 33°40' W 118°15'924.5
2017-Nov-30 02:01N 33°31' W 118°17'  
Track history (hours):
 
Tides and Currents Weather Stations Pressure Air Temp Water Temp Dewpoint Dewpoint Depression Visibility Wind Speed Wind Dir Waves Ship Positions

Super Express

Owner: CATALINA CHANNEL EXPRESS, Long Beach, CA. More information available from US FCC via Universal Licensing System and Coast Guard Vessel Documentation Center.

Last reported at 2017-Dec-10 01:46 UTC. Time now 2017-Dec-11 17:22 UTC.
Position N 33°27' W 118°18'.

Length 45 m; draft 1 m.

Type: High speed craft. MMSI: 366943940.

Date/timePositionNaut miles runAvg speedWind from/ knotsBaromVisibWave heightAir tempDewpointWater temp
2017-Dec-10 01:46N 33°27' W 118°18'13 0.6
2017-Dec-09 03:35N 33°39' W 118°15'225.2
2017-Dec-09 03:31N 33°38' W 118°15'1325.4
2017-Dec-09 03:00N 33°25' W 118°18'5 7.6
2017-Dec-09 02:24N 33°21' W 118°19'719.0
2017-Dec-09 02:00N 33°27' W 118°25'4 7.0
2017-Dec-09 01:27N 33°27' W 118°30'1023.7
2017-Dec-09 01:01N 33°35' W 118°22'5 0.1
2017-Dec-07 02:10N 33°35' W 118°16'425.4
2017-Dec-07 02:00N 33°31' W 118°17'9 8.4
2017-Dec-07 00:57N 33°23' W 118°20'8 9.6
2017-Dec-07 00:04N 33°27' W 118°30'0 7.4
2017-Dec-07 00:00N 33°27' W 118°29'  
2017-Dec-04 02:19N 33°40' W 118°14'825.2
2017-Dec-04 01:59N 33°32' W 118°17'1112.5
2017-Dec-04 01:05N 33°21' W 118°19'21 4.4
2017-Dec-03 20:22N 33°41' W 118°15'925.5
2017-Dec-03 20:01N 33°34' W 118°22'9 9.8
2017-Dec-03 19:03N 33°27' W 118°30'0 8.9
2017-Dec-03 19:00N 33°27' W 118°29'14 9.9
2017-Dec-03 17:34N 33°36' W 118°16'3 0.2
2017-Dec-03 02:16N 33°39' W 118°15'725.2
2017-Dec-03 02:00N 33°32' W 118°17'1111.2
2017-Dec-03 01:03N 33°22' W 118°19'425.6
2017-Dec-03 00:54N 33°25' W 118°22'6 8.6
2017-Dec-03 00:08N 33°27' W 118°30'320.1
2017-Dec-03 00:01N 33°28' W 118°27'1325.4
2017-Dec-02 23:30N 33°38' W 118°17'7 2.4
2017-Dec-02 20:38N 33°45' W 118°17'1 8.1
2017-Dec-02 20:29N 33°44' W 118°16'1019.9
2017-Dec-02 20:00N 33°35' W 118°22'11 8.7
2017-Dec-02 18:42N 33°24' W 118°22'4 7.3
2017-Dec-02 18:12N 33°21' W 118°19'622.7
2017-Dec-02 17:56N 33°27' W 118°18'17 1.2
2017-Dec-02 03:45N 33°43' W 118°16'520.2
2017-Dec-02 03:30N 33°38' W 118°16'1425.7
2017-Dec-02 02:59N 33°25' W 118°18'4 7.0
2017-Dec-02 02:22N 33°21' W 118°19'1110.6
2017-Dec-02 01:22N 33°29' W 118°28'925.9
2017-Dec-02 01:00N 33°36' W 118°21'917.9
2017-Dec-02 00:30N 33°44' W 118°17'1 1.2
2017-Dec-01 23:40N 33°45' W 118°16'0 0.0
2017-Dec-01 23:29N 33°45' W 118°16'0 0.0
2017-Dec-01 23:00N 33°45' W 118°16'5 1.8
2017-Dec-01 20:20N 33°40' W 118°16'824.8
2017-Dec-01 20:00N 33°34' W 118°22'910.2
2017-Dec-01 19:05N 33°27' W 118°30'215.6
2017-Dec-01 18:59N 33°27' W 118°28'910.3
2017-Dec-01 18:09N 33°22' W 118°19'425.4
2017-Dec-01 17:59N 33°26' W 118°19'1225.0
2017-Dec-01 17:29N 33°39' W 118°16'613.0
2017-Dec-01 17:00N 33°45' W 118°16'5 0.1
2017-Nov-30 02:24N 33°40' W 118°15'924.5
2017-Nov-30 02:01N 33°31' W 118°17'  

Dump ship's entire track history